sensor_id;sensor_type;location;lat;lon;timestamp;pressure;altitude;pressure_sealevel;temperature;humidity
35989;BME280;22064;42.672;23.282;2023-01-28T00:01:04;93995.94;;;-1.22;100.00
35989;BME280;22064;42.672;23.282;2023-01-28T00:03:49;93992.22;;;-1.20;100.00
35989;BME280;22064;42.672;23.282;2023-01-28T00:06:34;93996.81;;;-1.08;100.00
35989;BME280;22064;42.672;23.282;2023-01-28T00:09:18;93991.69;;;-1.15;100.00
35989;BME280;22064;42.672;23.282;2023-01-28T00:12:03;94002.06;;;-1.17;100.00
35989;BME280;22064;42.672;23.282;2023-01-28T00:14:46;94009.00;;;-1.10;100.00
35989;BME280;22064;42.672;23.282;2023-01-28T00:17:31;94023.13;;;-1.14;100.00
35989;BME280;22064;42.672;23.282;2023-01-28T00:20:15;94020.56;;;-1.14;100.00
35989;BME280;22064;42.672;23.282;2023-01-28T00:22:59;94023.16;;;-1.08;100.00
35989;BME280;22064;42.672;23.282;2023-01-28T00:25:44;94027.44;;;-1.15;100.00
35989;BME280;22064;42.672;23.282;2023-01-28T00:28:28;94021.63;;;-1.02;100.00
35989;BME280;22064;42.672;23.282;2023-01-28T00:34:00;94028.19;;;-1.21;100.00
35989;BME280;22064;42.672;23.282;2023-01-28T00:36:44;94030.94;;;-1.16;100.00
35989;BME280;22064;42.672;23.282;2023-01-28T00:39:28;94034.91;;;-1.13;100.00
35989;BME280;22064;42.672;23.282;2023-01-28T00:42:12;94037.28;;;-1.12;100.00
35989;BME280;22064;42.672;23.282;2023-01-28T00:44:57;94035.91;;;-1.14;100.00
35989;BME280;22064;42.672;23.282;2023-01-28T00:47:41;94046.91;;;-1.14;100.00
35989;BME280;22064;42.672;23.282;2023-01-28T00:50:27;94038.63;;;-1.16;100.00
35989;BME280;22064;42.672;23.282;2023-01-28T00:53:11;94042.53;;;-1.20;100.00
35989;BME280;22064;42.672;23.282;2023-01-28T00:55:55;94044.09;;;-1.19;100.00
35989;BME280;22064;42.672;23.282;2023-01-28T00:58:40;94029.34;;;-1.24;100.00
35989;BME280;22064;42.672;23.282;2023-01-28T01:01:26;94045.50;;;-1.38;100.00
35989;BME280;22064;42.672;23.282;2023-01-28T01:04:12;94040.50;;;-1.25;100.00
35989;BME280;22064;42.672;23.282;2023-01-28T01:06:56;94040.34;;;-1.23;100.00
35989;BME280;22064;42.672;23.282;2023-01-28T01:09:40;94038.94;;;-1.26;100.00
35989;BME280;22064;42.672;23.282;2023-01-28T01:12:24;94035.03;;;-1.22;100.00
35989;BME280;22064;42.672;23.282;2023-01-28T01:15:09;94033.47;;;-1.23;100.00
35989;BME280;22064;42.672;23.282;2023-01-28T01:17:53;94042.94;;;-1.17;100.00
35989;BME280;22064;42.672;23.282;2023-01-28T01:20:40;94048.94;;;-1.31;100.00
35989;BME280;22064;42.672;23.282;2023-01-28T01:23:29;94060.47;;;-1.35;100.00
35989;BME280;22064;42.672;23.282;2023-01-28T01:26:14;94048.63;;;-1.43;100.00
35989;BME280;22064;42.672;23.282;2023-01-28T01:28:59;94056.97;;;-1.34;100.00
35989;BME280;22064;42.672;23.282;2023-01-28T01:31:43;94065.56;;;-1.35;100.00
35989;BME280;22064;42.672;23.282;2023-01-28T01:34:28;94050.44;;;-1.36;100.00
35989;BME280;22064;42.672;23.282;2023-01-28T01:37:12;94051.34;;;-1.44;100.00
35989;BME280;22064;42.672;23.282;2023-01-28T01:39:56;94050.03;;;-1.40;100.00
35989;BME280;22064;42.672;23.282;2023-01-28T01:42:40;94057.31;;;-1.37;100.00
35989;BME280;22064;42.672;23.282;2023-01-28T01:45:26;94058.09;;;-1.36;100.00
35989;BME280;22064;42.672;23.282;2023-01-28T01:48:14;94055.56;;;-1.36;100.00
35989;BME280;22064;42.672;23.282;2023-01-28T01:51:04;94055.56;;;-1.36;100.00
35989;BME280;22064;42.672;23.282;2023-01-28T01:53:56;94047.75;;;-1.28;100.00
35989;BME280;22064;42.672;23.282;2023-01-28T01:56:43;94048.38;;;-1.26;100.00
35989;BME280;22064;42.672;23.282;2023-01-28T01:59:32;94057.75;;;-1.33;100.00
35989;BME280;22064;42.672;23.282;2023-01-28T02:02:17;94050.31;;;-1.28;100.00
35989;BME280;22064;42.672;23.282;2023-01-28T02:05:02;94052.31;;;-1.24;100.00
35989;BME280;22064;42.672;23.282;2023-01-28T02:07:49;94060.56;;;-1.22;100.00
35989;BME280;22064;42.672;23.282;2023-01-28T02:10:35;94068.97;;;-1.28;100.00
35989;BME280;22064;42.672;23.282;2023-01-28T02:13:22;94059.97;;;-1.24;100.00
35989;BME280;22064;42.672;23.282;2023-01-28T02:16:08;94063.28;;;-1.30;100.00
35989;BME280;22064;42.672;23.282;2023-01-28T02:18:53;94067.22;;;-1.27;100.00
35989;BME280;22064;42.672;23.282;2023-01-28T02:21:50;94035.91;;;-1.36;100.00
35989;BME280;22064;42.672;23.282;2023-01-28T02:24:51;94074.06;;;-1.28;100.00
35989;BME280;22064;42.672;23.282;2023-01-28T02:30:41;94077.66;;;-1.22;100.00
35989;BME280;22064;42.672;23.282;2023-01-28T02:33:34;94077.03;;;-1.31;100.00
35989;BME280;22064;42.672;23.282;2023-01-28T02:36:31;94069.63;;;-1.41;100.00
35989;BME280;22064;42.672;23.282;2023-01-28T02:39:24;94078.41;;;-1.28;100.00
35989;BME280;22064;42.672;23.282;2023-01-28T02:42:14;94073.66;;;-1.31;100.00
35989;BME280;22064;42.672;23.282;2023-01-28T02:45:00;94083.31;;;-1.48;100.00
35989;BME280;22064;42.672;23.282;2023-01-28T02:47:44;94084.28;;;-1.28;100.00
35989;BME280;22064;42.672;23.282;2023-01-28T02:51:02;94077.28;;;-1.41;100.00
35989;BME280;22064;42.672;23.282;2023-01-28T02:54:00;94069.88;;;-1.35;100.00
35989;BME280;22064;42.672;23.282;2023-01-28T03:06:46;94080.47;;;-1.38;100.00
35989;BME280;22064;42.672;23.282;2023-01-28T03:09:32;94087.34;;;-1.39;100.00
35989;BME280;22064;42.672;23.282;2023-01-28T03:12:22;94089.91;;;-1.39;100.00
35989;BME280;22064;42.672;23.282;2023-01-28T03:15:31;94088.69;;;-1.43;100.00
35989;BME280;22064;42.672;23.282;2023-01-28T03:18:37;94089.63;;;-1.44;100.00
35989;BME280;22064;42.672;23.282;2023-01-28T03:21:43;94090.69;;;-1.38;100.00
35989;BME280;22064;42.672;23.282;2023-01-28T03:24:51;94081.50;;;-1.33;100.00
35989;BME280;22064;42.672;23.282;2023-01-28T03:28:03;94097.00;;;-1.34;100.00
35989;BME280;22064;42.672;23.282;2023-01-28T03:31:15;94089.03;;;-1.25;100.00
35989;BME280;22064;42.672;23.282;2023-01-28T03:34:20;94090.16;;;-1.34;100.00
35989;BME280;22064;42.672;23.282;2023-01-28T03:37:24;94093.97;;;-1.23;100.00
35989;BME280;22064;42.672;23.282;2023-01-28T03:40:22;94089.91;;;-1.39;100.00
35989;BME280;22064;42.672;23.282;2023-01-28T03:43:06;94094.28;;;-1.33;100.00
35989;BME280;22064;42.672;23.282;2023-01-28T03:45:51;94096.78;;;-1.40;100.00
35989;BME280;22064;42.672;23.282;2023-01-28T03:48:36;94096.50;;;-1.45;100.00
35989;BME280;22064;42.672;23.282;2023-01-28T03:51:25;94101.09;;;-1.40;100.00
35989;BME280;22064;42.672;23.282;2023-01-28T03:54:10;94106.09;;;-1.47;100.00
35989;BME280;22064;42.672;23.282;2023-01-28T03:56:54;94083.50;;;-1.50;100.00
35989;BME280;22064;42.672;23.282;2023-01-28T03:59:39;94110.25;;;-1.46;100.00
35989;BME280;22064;42.672;23.282;2023-01-28T04:02:24;94113.50;;;-1.37;100.00
35989;BME280;22064;42.672;23.282;2023-01-28T04:05:10;94112.38;;;-1.49;100.00
35989;BME280;22064;42.672;23.282;2023-01-28T04:08:01;94113.38;;;-1.29;100.00
35989;BME280;22064;42.672;23.282;2023-01-28T04:11:04;94115.88;;;-1.35;100.00
35989;BME280;22064;42.672;23.282;2023-01-28T04:14:04;94105.63;;;-1.57;100.00
35989;BME280;22064;42.672;23.282;2023-01-28T04:16:58;94120.84;;;-1.49;100.00
35989;BME280;22064;42.672;23.282;2023-01-28T04:19:43;94122.59;;;-1.49;100.00
35989;BME280;22064;42.672;23.282;2023-01-28T04:22:28;94121.78;;;-1.50;100.00
35989;BME280;22064;42.672;23.282;2023-01-28T04:25:12;94126.31;;;-1.52;100.00
35989;BME280;22064;42.672;23.282;2023-01-28T04:27:56;94124.53;;;-1.51;100.00
35989;BME280;22064;42.672;23.282;2023-01-28T04:30:43;94131.94;;;-1.56;100.00
35989;BME280;22064;42.672;23.282;2023-01-28T04:33:59;94130.06;;;-1.48;100.00
35989;BME280;22064;42.672;23.282;2023-01-28T04:37:10;94133.19;;;-1.52;100.00
35989;BME280;22064;42.672;23.282;2023-01-28T04:40:13;94138.28;;;-1.52;100.00
35989;BME280;22064;42.672;23.282;2023-01-28T04:43:10;94139.06;;;-1.52;100.00
35989;BME280;22064;42.672;23.282;2023-01-28T04:46:05;94147.19;;;-1.63;100.00
35989;BME280;22064;42.672;23.282;2023-01-28T04:48:57;94157.03;;;-1.60;100.00
35989;BME280;22064;42.672;23.282;2023-01-28T04:52:08;94154.94;;;-1.71;100.00
35989;BME280;22064;42.672;23.282;2023-01-28T04:55:16;94152.06;;;-1.83;100.00
35989;BME280;22064;42.672;23.282;2023-01-28T04:57:59;94159.25;;;-1.72;100.00
35989;BME280;22064;42.672;23.282;2023-01-28T05:00:44;94148.16;;;-1.79;100.00
35989;BME280;22064;42.672;23.282;2023-01-28T05:03:30;94159.78;;;-1.61;100.00
35989;BME280;22064;42.672;23.282;2023-01-28T05:06:14;94162.69;;;-1.65;100.00
35989;BME280;22064;42.672;23.282;2023-01-28T05:09:03;94170.59;;;-1.59;100.00
35989;BME280;22064;42.672;23.282;2023-01-28T05:11:48;94168.59;;;-1.79;100.00
35989;BME280;22064;42.672;23.282;2023-01-28T05:14:32;94168.31;;;-1.69;100.00
35989;BME280;22064;42.672;23.282;2023-01-28T05:17:23;94174.03;;;-1.52;100.00
35989;BME280;22064;42.672;23.282;2023-01-28T05:20:08;94183.28;;;-1.66;100.00
35989;BME280;22064;42.672;23.282;2023-01-28T05:22:52;94178.50;;;-1.54;100.00
35989;BME280;22064;42.672;23.282;2023-01-28T05:25:39;94177.28;;;-1.58;100.00
35989;BME280;22064;42.672;23.282;2023-01-28T05:28:24;94184.50;;;-1.62;100.00
35989;BME280;22064;42.672;23.282;2023-01-28T05:31:08;94177.00;;;-1.49;100.00
35989;BME280;22064;42.672;23.282;2023-01-28T05:33:53;94191.28;;;-1.54;100.00
35989;BME280;22064;42.672;23.282;2023-01-28T05:36:39;94187.03;;;-1.47;100.00
35989;BME280;22064;42.672;23.282;2023-01-28T05:39:43;94194.91;;;-1.64;100.00
35989;BME280;22064;42.672;23.282;2023-01-28T05:42:28;94188.56;;;-1.68;100.00
35989;BME280;22064;42.672;23.282;2023-01-28T05:45:22;94198.94;;;-1.54;100.00
35989;BME280;22064;42.672;23.282;2023-01-28T05:48:33;94198.66;;;-1.59;100.00
35989;BME280;22064;42.672;23.282;2023-01-28T05:51:43;94195.31;;;-1.45;100.00
35989;BME280;22064;42.672;23.282;2023-01-28T05:54:30;94192.75;;;-1.45;100.00
35989;BME280;22064;42.672;23.282;2023-01-28T05:57:14;94199.03;;;-1.63;100.00
35989;BME280;22064;42.672;23.282;2023-01-28T05:59:58;94213.28;;;-1.53;100.00
35989;BME280;22064;42.672;23.282;2023-01-28T06:02:44;94195.78;;;-1.71;100.00
35989;BME280;22064;42.672;23.282;2023-01-28T06:05:30;94200.28;;;-1.58;100.00
35989;BME280;22064;42.672;23.282;2023-01-28T06:08:18;94213.75;;;-1.65;100.00
35989;BME280;22064;42.672;23.282;2023-01-28T06:11:02;94209.78;;;-1.67;100.00
35989;BME280;22064;42.672;23.282;2023-01-28T06:13:50;94214.34;;;-1.63;100.00
35989;BME280;22064;42.672;23.282;2023-01-28T06:16:48;94235.38;;;-1.60;100.00
35989;BME280;22064;42.672;23.282;2023-01-28T06:19:50;94228.88;;;-1.63;100.00
35989;BME280;22064;42.672;23.282;2023-01-28T06:22:34;94239.44;;;-1.51;100.00
35989;BME280;22064;42.672;23.282;2023-01-28T06:25:18;94234.25;;;-1.58;100.00
35989;BME280;22064;42.672;23.282;2023-01-28T06:28:04;94237.84;;;-1.67;100.00
35989;BME280;22064;42.672;23.282;2023-01-28T06:30:49;94242.69;;;-1.57;100.00
35989;BME280;22064;42.672;23.282;2023-01-28T06:33:33;94245.88;;;-1.55;100.00
35989;BME280;22064;42.672;23.282;2023-01-28T06:36:17;94243.47;;;-1.42;100.00
35989;BME280;22064;42.672;23.282;2023-01-28T06:39:02;94261.97;;;-1.40;100.00
35989;BME280;22064;42.672;23.282;2023-01-28T06:41:48;94261.00;;;-1.39;100.00
35989;BME280;22064;42.672;23.282;2023-01-28T06:44:32;94264.53;;;-1.40;100.00
35989;BME280;22064;42.672;23.282;2023-01-28T06:47:17;94265.59;;;-1.49;100.00
35989;BME280;22064;42.672;23.282;2023-01-28T06:50:01;94274.56;;;-1.53;100.00
35989;BME280;22064;42.672;23.282;2023-01-28T06:52:45;94274.84;;;-1.48;100.00
35989;BME280;22064;42.672;23.282;2023-01-28T06:55:29;94281.00;;;-1.57;100.00
35989;BME280;22064;42.672;23.282;2023-01-28T06:58:14;94282.91;;;-1.59;100.00
35989;BME280;22064;42.672;23.282;2023-01-28T07:00:58;94282.41;;;-1.55;100.00
35989;BME280;22064;42.672;23.282;2023-01-28T07:03:42;94290.13;;;-1.63;100.00
35989;BME280;22064;42.672;23.282;2023-01-28T07:06:26;94283.38;;;-1.71;100.00
35989;BME280;22064;42.672;23.282;2023-01-28T07:09:11;94296.41;;;-1.51;100.00
35989;BME280;22064;42.672;23.282;2023-01-28T07:11:55;94298.06;;;-1.58;100.00
35989;BME280;22064;42.672;23.282;2023-01-28T07:14:39;94293.56;;;-1.56;100.00
35989;BME280;22064;42.672;23.282;2023-01-28T07:17:23;94295.88;;;-1.46;100.00
35989;BME280;22064;42.672;23.282;2023-01-28T07:20:09;94296.22;;;-1.64;100.00
35989;BME280;22064;42.672;23.282;2023-01-28T07:22:54;94306.06;;;-1.76;100.00
35989;BME280;22064;42.672;23.282;2023-01-28T07:25:38;94315.16;;;-1.58;100.00
35989;BME280;22064;42.672;23.282;2023-01-28T07:28:22;94309.34;;;-1.52;100.00
35989;BME280;22064;42.672;23.282;2023-01-28T07:31:06;94323.34;;;-1.48;100.00
35989;BME280;22064;42.672;23.282;2023-01-28T07:33:51;94322.28;;;-1.54;100.00
35989;BME280;22064;42.672;23.282;2023-01-28T07:36:35;94329.50;;;-1.57;100.00
35989;BME280;22064;42.672;23.282;2023-01-28T07:39:19;94329.06;;;-1.61;100.00
35989;BME280;22064;42.672;23.282;2023-01-28T07:42:03;94322.03;;;-1.44;100.00
35989;BME280;22064;42.672;23.282;2023-01-28T07:44:50;94331.72;;;-1.40;100.00
35989;BME280;22064;42.672;23.282;2023-01-28T07:47:34;94327.75;;;-1.42;100.00
35989;BME280;22064;42.672;23.282;2023-01-28T07:50:19;94335.22;;;-1.41;100.00
35989;BME280;22064;42.672;23.282;2023-01-28T07:53:05;94337.09;;;-1.20;100.00
35989;BME280;22064;42.672;23.282;2023-01-28T07:55:49;94336.81;;;-1.25;100.00
35989;BME280;22064;42.672;23.282;2023-01-28T07:58:33;94342.47;;;-1.29;100.00
35989;BME280;22064;42.672;23.282;2023-01-28T08:01:17;94331.38;;;-1.36;100.00
35989;BME280;22064;42.672;23.282;2023-01-28T08:04:02;94341.94;;;-1.10;100.00
35989;BME280;22064;42.672;23.282;2023-01-28T08:06:46;94345.19;;;-1.16;100.00
35989;BME280;22064;42.672;23.282;2023-01-28T08:09:32;94352.06;;;-1.02;100.00
35989;BME280;22064;42.672;23.282;2023-01-28T08:12:17;94354.19;;;-1.05;100.00
35989;BME280;22064;42.672;23.282;2023-01-28T08:15:01;94351.00;;;-1.07;100.00
35989;BME280;22064;42.672;23.282;2023-01-28T08:17:48;94350.13;;;-1.14;100.00
35989;BME280;22064;42.672;23.282;2023-01-28T08:20:33;94357.25;;;-0.95;100.00
35989;BME280;22064;42.672;23.282;2023-01-28T08:23:18;94366.50;;;-0.94;100.00
35989;BME280;22064;42.672;23.282;2023-01-28T08:26:02;94363.16;;;-1.09;100.00
35989;BME280;22064;42.672;23.282;2023-01-28T08:28:46;94377.25;;;-1.13;100.00
35989;BME280;22064;42.672;23.282;2023-01-28T08:31:30;94363.63;;;-1.06;100.00
35989;BME280;22064;42.672;23.282;2023-01-28T08:34:15;94361.16;;;-0.99;100.00
35989;BME280;22064;42.672;23.282;2023-01-28T08:36:59;94348.38;;;-0.99;100.00
35989;BME280;22064;42.672;23.282;2023-01-28T08:39:43;94378.13;;;-0.77;100.00
35989;BME280;22064;42.672;23.282;2023-01-28T08:42:28;94367.03;;;-0.84;100.00
35989;BME280;22064;42.672;23.282;2023-01-28T08:45:12;94377.69;;;-0.65;100.00
35989;BME280;22064;42.672;23.282;2023-01-28T08:50:42;94368.41;;;-0.66;100.00
35989;BME280;22064;42.672;23.282;2023-01-28T08:53:26;94380.19;;;-0.87;100.00
35989;BME280;22064;42.672;23.282;2023-01-28T08:56:10;94359.03;;;-0.81;100.00
35989;BME280;22064;42.672;23.282;2023-01-28T08:58:55;94376.22;;;-0.75;100.00
35989;BME280;22064;42.672;23.282;2023-01-28T09:01:39;94370.28;;;-0.75;100.00
35989;BME280;22064;42.672;23.282;2023-01-28T09:04:23;94368.97;;;-0.71;100.00
35989;BME280;22064;42.672;23.282;2023-01-28T09:07:07;94365.16;;;-0.60;100.00
35989;BME280;22064;42.672;23.282;2023-01-28T09:09:51;94370.88;;;-0.58;100.00
35989;BME280;22064;42.672;23.282;2023-01-28T09:12:36;94377.31;;;-0.62;100.00
35989;BME280;22064;42.672;23.282;2023-01-28T09:15:21;94379.03;;;-0.33;100.00
35989;BME280;22064;42.672;23.282;2023-01-28T09:18:05;94385.31;;;-0.51;100.00
35989;BME280;22064;42.672;23.282;2023-01-28T09:20:49;94377.34;;;-0.77;100.00
35989;BME280;22064;42.672;23.282;2023-01-28T09:23:36;94382.69;;;-0.72;100.00
35989;BME280;22064;42.672;23.282;2023-01-28T09:26:21;94387.13;;;-0.81;100.00
35989;BME280;22064;42.672;23.282;2023-01-28T09:29:05;94377.72;;;-0.80;100.00
35989;BME280;22064;42.672;23.282;2023-01-28T09:31:49;94379.44;;;-0.66;100.00
35989;BME280;22064;42.672;23.282;2023-01-28T09:34:34;94376.69;;;-0.50;100.00
35989;BME280;22064;42.672;23.282;2023-01-28T09:37:19;94375.00;;;-0.57;100.00
35989;BME280;22064;42.672;23.282;2023-01-28T09:40:03;94380.97;;;-0.72;100.00
35989;BME280;22064;42.672;23.282;2023-01-28T09:42:58;94386.63;;;-0.40;100.00
35989;BME280;22064;42.672;23.282;2023-01-28T09:45:46;94386.25;;;-0.73;100.00
35989;BME280;22064;42.672;23.282;2023-01-28T09:48:37;94378.41;;;-0.72;100.00
35989;BME280;22064;42.672;23.282;2023-01-28T09:51:31;94379.19;;;-0.71;100.00
35989;BME280;22064;42.672;23.282;2023-01-28T09:54:34;94382.06;;;-0.59;100.00
35989;BME280;22064;42.672;23.282;2023-01-28T09:57:37;94377.69;;;-0.65;100.00
35989;BME280;22064;42.672;23.282;2023-01-28T10:00:30;94370.25;;;-0.60;100.00
35989;BME280;22064;42.672;23.282;2023-01-28T10:15:16;94373.03;;;-0.77;100.00
35989;BME280;22064;42.672;23.282;2023-01-28T10:18:08;94379.00;;;-0.84;100.00
35989;BME280;22064;42.672;23.282;2023-01-28T10:20:54;94379.03;;;-0.99;100.00
35989;BME280;22064;42.672;23.282;2023-01-28T10:24:02;94377.63;;;-0.87;100.00
35989;BME280;22064;42.672;23.282;2023-01-28T10:26:48;94375.06;;;-0.87;100.00
35989;BME280;22064;42.672;23.282;2023-01-28T10:29:33;94370.47;;;-0.91;100.00
35989;BME280;22064;42.672;23.282;2023-01-28T10:32:29;94375.94;;;-0.95;100.00
35989;BME280;22064;42.672;23.282;2023-01-28T10:35:13;94367.47;;;-0.80;100.00
35989;BME280;22064;42.672;23.282;2023-01-28T10:38:00;94363.50;;;-0.83;100.00
35989;BME280;22064;42.672;23.282;2023-01-28T10:40:46;94359.09;;;-0.74;100.00
35989;BME280;22064;42.672;23.282;2023-01-28T10:43:36;94363.66;;;-0.70;100.00
35989;BME280;22064;42.672;23.282;2023-01-28T10:46:31;94363.16;;;-0.80;100.00
35989;BME280;22064;42.672;23.282;2023-01-28T10:49:27;94367.56;;;-0.88;100.00
35989;BME280;22064;42.672;23.282;2023-01-28T10:52:14;94376.91;;;-0.81;100.00
35989;BME280;22064;42.672;23.282;2023-01-28T10:55:04;94362.25;;;-0.72;100.00
35989;BME280;22064;42.672;23.282;2023-01-28T10:57:48;94372.66;;;-0.74;100.00
35989;BME280;22064;42.672;23.282;2023-01-28T11:00:35;94371.03;;;-0.45;100.00
35989;BME280;22064;42.672;23.282;2023-01-28T11:03:20;94383.69;;;-0.73;100.00
35989;BME280;22064;42.672;23.282;2023-01-28T11:06:17;94369.22;;;-0.66;100.00
35989;BME280;22064;42.672;23.282;2023-01-28T11:09:43;94361.09;;;-0.70;100.00
35989;BME280;22064;42.672;23.282;2023-01-28T11:12:28;94372.25;;;-0.41;100.00
35989;BME280;22064;42.672;23.282;2023-01-28T11:15:16;94377.34;;;-0.41;100.00
35989;BME280;22064;42.672;23.282;2023-01-28T11:18:04;94370.41;;;-0.47;100.00
35989;BME280;22064;42.672;23.282;2023-01-28T11:20:58;94370.25;;;-0.45;100.00
35989;BME280;22064;42.672;23.282;2023-01-28T11:23:50;94369.97;;;-0.51;100.00
35989;BME280;22064;42.672;23.282;2023-01-28T11:26:38;94366.88;;;-0.46;100.00
35989;BME280;22064;42.672;23.282;2023-01-28T11:29:31;94367.84;;;-0.47;100.00
35989;BME280;22064;42.672;23.282;2023-01-28T11:32:17;94377.25;;;-0.33;100.00
35989;BME280;22064;42.672;23.282;2023-01-28T11:35:04;94370.50;;;-0.19;100.00
35989;BME280;22064;42.672;23.282;2023-01-28T11:37:48;94371.59;;;-0.28;100.00
35989;BME280;22064;42.672;23.282;2023-01-28T11:40:32;94379.94;;;-0.19;100.00
35989;BME280;22064;42.672;23.282;2023-01-28T11:43:19;94360.72;;;-0.15;100.00
35989;BME280;22064;42.672;23.282;2023-01-28T11:46:20;94370.34;;;-0.17;100.00
35989;BME280;22064;42.672;23.282;2023-01-28T11:49:40;94365.94;;;-0.02;100.00
35989;BME280;22064;42.672;23.282;2023-01-28T11:58:53;94355.16;;;0.03;100.00
35989;BME280;22064;42.672;23.282;2023-01-28T12:15:57;94357.56;;;0.32;100.00
35989;BME280;22064;42.672;23.282;2023-01-28T12:19:17;94356.28;;;0.21;100.00
35989;BME280;22064;42.672;23.282;2023-01-28T12:41:18;94370.28;;;-0.03;100.00
35989;BME280;22064;42.672;23.282;2023-01-28T12:44:08;94370.72;;;0.01;100.00
35989;BME280;22064;42.672;23.282;2023-01-28T12:46:57;94386.19;;;0.14;100.00
35989;BME280;22064;42.672;23.282;2023-01-28T12:49:47;94377.41;;;0.02;100.00
35989;BME280;22064;42.672;23.282;2023-01-28T12:52:43;94366.38;;;0.02;100.00
35989;BME280;22064;42.672;23.282;2023-01-28T12:55:43;94383.97;;;-0.10;100.00
35989;BME280;22064;42.672;23.282;2023-01-28T12:58:46;94394.09;;;-0.24;100.00
35989;BME280;22064;42.672;23.282;2023-01-28T13:01:42;94379.72;;;-0.03;100.00
35989;BME280;22064;42.672;23.282;2023-01-28T13:07:34;94394.59;;;0.08;100.00
35989;BME280;22064;42.672;23.282;2023-01-28T13:10:43;94397.63;;;0.18;100.00
35989;BME280;22064;42.672;23.282;2023-01-28T13:13:33;94399.41;;;0.18;100.00
35989;BME280;22064;42.672;23.282;2023-01-28T13:16:17;94400.69;;;0.29;100.00
35989;BME280;22064;42.672;23.282;2023-01-28T13:22:08;94409.03;;;0.37;100.00
35989;BME280;22064;42.672;23.282;2023-01-28T13:24:53;94404.88;;;0.36;100.00
35989;BME280;22064;42.672;23.282;2023-01-28T13:27:37;94412.50;;;0.30;100.00
35989;BME280;22064;42.672;23.282;2023-01-28T13:33:28;94404.72;;;0.16;100.00
35989;BME280;22064;42.672;23.282;2023-01-28T13:36:36;94411.78;;;0.14;100.00
35989;BME280;22064;42.672;23.282;2023-01-28T13:39:23;94413.78;;;-0.03;100.00
35989;BME280;22064;42.672;23.282;2023-01-28T13:42:23;94420.00;;;-0.12;100.00
35989;BME280;22064;42.672;23.282;2023-01-28T13:45:28;94431.19;;;-0.13;100.00
35989;BME280;22064;42.672;23.282;2023-01-28T13:51:23;94428.38;;;-0.03;100.00
35989;BME280;22064;42.672;23.282;2023-01-28T13:54:16;94428.28;;;-0.10;100.00
35989;BME280;22064;42.672;23.282;2023-01-28T14:13:00;94434.94;;;-0.30;100.00
35989;BME280;22064;42.672;23.282;2023-01-28T14:16:19;94443.78;;;-0.33;100.00
35989;BME280;22064;42.672;23.282;2023-01-28T14:19:11;94444.22;;;-0.44;100.00
35989;BME280;22064;42.672;23.282;2023-01-28T14:21:56;94456.56;;;-0.48;100.00
35989;BME280;22064;42.672;23.282;2023-01-28T14:24:40;94449.88;;;-0.63;100.00
35989;BME280;22064;42.672;23.282;2023-01-28T14:27:34;94454.72;;;-0.39;100.00
35989;BME280;22064;42.672;23.282;2023-01-28T14:30:46;94449.19;;;-0.42;100.00
35989;BME280;22064;42.672;23.282;2023-01-28T14:33:34;94465.84;;;-0.47;100.00
35989;BME280;22064;42.672;23.282;2023-01-28T14:36:19;94459.84;;;-0.54;100.00
35989;BME280;22064;42.672;23.282;2023-01-28T14:39:09;94463.81;;;-0.51;100.00
35989;BME280;22064;42.672;23.282;2023-01-28T14:41:57;94458.53;;;-0.64;100.00
35989;BME280;22064;42.672;23.282;2023-01-28T14:44:43;94459.41;;;-0.57;100.00
35989;BME280;22064;42.672;23.282;2023-01-28T14:47:35;94470.06;;;-0.54;100.00
35989;BME280;22064;42.672;23.282;2023-01-28T14:51:00;94468.78;;;-0.64;100.00
35989;BME280;22064;42.672;23.282;2023-01-28T14:59:57;94484.00;;;-0.86;100.00
35989;BME280;22064;42.672;23.282;2023-01-28T15:02:42;94484.50;;;-0.90;100.00
35989;BME280;22064;42.672;23.282;2023-01-28T15:05:28;94477.06;;;-0.77;100.00
35989;BME280;22064;42.672;23.282;2023-01-28T15:08:22;94483.03;;;-0.85;100.00
35989;BME280;22064;42.672;23.282;2023-01-28T15:11:12;94493.94;;;-0.91;100.00
35989;BME280;22064;42.672;23.282;2023-01-28T15:13:59;94481.25;;;-0.84;100.00
35989;BME280;22064;42.672;23.282;2023-01-28T15:16:47;94479.88;;;-0.87;100.00
35989;BME280;22064;42.672;23.282;2023-01-28T15:19:33;94495.56;;;-0.90;100.00
35989;BME280;22064;42.672;23.282;2023-01-28T15:22:21;94485.16;;;-0.88;100.00
35989;BME280;22064;42.672;23.282;2023-01-28T15:25:18;94496.09;;;-0.80;100.00
35989;BME280;22064;42.672;23.282;2023-01-28T15:28:03;94501.38;;;-0.81;100.00
35989;BME280;22064;42.672;23.282;2023-01-28T15:30:47;94499.97;;;-0.84;100.00
35989;BME280;22064;42.672;23.282;2023-01-28T15:33:31;94495.47;;;-0.82;100.00
35989;BME280;22064;42.672;23.282;2023-01-28T15:36:21;94499.53;;;-0.73;100.00
35989;BME280;22064;42.672;23.282;2023-01-28T15:39:16;94492.13;;;-0.82;100.00
35989;BME280;22064;42.672;23.282;2023-01-28T15:42:03;94506.41;;;-0.73;100.00
35989;BME280;22064;42.672;23.282;2023-01-28T15:44:49;94501.72;;;-0.70;100.00
35989;BME280;22064;42.672;23.282;2023-01-28T15:47:35;94515.84;;;-0.74;100.00
35989;BME280;22064;42.672;23.282;2023-01-28T15:50:22;94509.16;;;-0.75;100.00
35989;BME280;22064;42.672;23.282;2023-01-28T15:53:08;94514.78;;;-0.79;100.00
35989;BME280;22064;42.672;23.282;2023-01-28T15:56:06;94519.28;;;-0.66;100.00
35989;BME280;22064;42.672;23.282;2023-01-28T15:58:51;94510.38;;;-0.71;100.00
35989;BME280;22064;42.672;23.282;2023-01-28T16:01:36;94522.19;;;-0.70;100.00
35989;BME280;22064;42.672;23.282;2023-01-28T16:07:07;94533.91;;;-0.75;100.00
35989;BME280;22064;42.672;23.282;2023-01-28T16:09:53;94536.31;;;-0.74;100.00
35989;BME280;22064;42.672;23.282;2023-01-28T16:12:38;94532.16;;;-0.75;100.00
35989;BME280;22064;42.672;23.282;2023-01-28T16:15:22;94535.75;;;-0.84;100.00
35989;BME280;22064;42.672;23.282;2023-01-28T16:18:06;94545.63;;;-0.81;100.00
35989;BME280;22064;42.672;23.282;2023-01-28T16:20:58;94534.25;;;-0.78;100.00